sensor_id;sensor_type;location;lat;lon;timestamp;P1;durP1;ratioP1;P2;durP2;ratioP2
25169;SDS011;13129;48.012;10.352;2023-06-10T03:31:14;16.35;;;14.65;;
25169;SDS011;13129;48.012;10.352;2023-06-10T03:33:41;17.17;;;15.60;;
25169;SDS011;13129;48.012;10.352;2023-06-10T03:36:07;16.20;;;14.68;;
25169;SDS011;13129;48.012;10.352;2023-06-10T03:38:33;15.02;;;13.63;;
25169;SDS011;13129;48.012;10.352;2023-06-10T03:40:59;14.50;;;13.20;;
25169;SDS011;13129;48.012;10.352;2023-06-10T03:43:24;13.65;;;12.45;;
25169;SDS011;13129;48.012;10.352;2023-06-10T03:45:50;14.35;;;13.05;;
25169;SDS011;13129;48.012;10.352;2023-06-10T03:48:17;14.55;;;13.25;;
25169;SDS011;13129;48.012;10.352;2023-06-10T03:50:43;15.05;;;13.63;;
25169;SDS011;13129;48.012;10.352;2023-06-10T03:53:08;14.25;;;12.90;;
25169;SDS011;13129;48.012;10.352;2023-06-10T03:55:34;14.77;;;13.38;;
25169;SDS011;13129;48.012;10.352;2023-06-10T03:57:59;17.08;;;15.25;;
25169;SDS011;13129;48.012;10.352;2023-06-10T04:00:25;15.27;;;13.82;;
25169;SDS011;13129;48.012;10.352;2023-06-10T04:02:51;14.32;;;13.02;;
25169;SDS011;13129;48.012;10.352;2023-06-10T04:05:23;15.70;;;14.20;;
25169;SDS011;13129;48.012;10.352;2023-06-10T04:07:48;15.93;;;14.50;;
25169;SDS011;13129;48.012;10.352;2023-06-10T04:10:15;15.60;;;13.95;;
25169;SDS011;13129;48.012;10.352;2023-06-10T04:12:41;16.02;;;14.52;;
25169;SDS011;13129;48.012;10.352;2023-06-10T04:15:07;17.98;;;16.30;;
25169;SDS011;13129;48.012;10.352;2023-06-10T04:17:41;23.27;;;16.77;;
25169;SDS011;13129;48.012;10.352;2023-06-10T04:20:17;17.67;;;15.98;;
25169;SDS011;13129;48.012;10.352;2023-06-10T04:22:42;16.63;;;15.13;;
25169;SDS011;13129;48.012;10.352;2023-06-10T04:25:14;18.05;;;16.30;;
25169;SDS011;13129;48.012;10.352;2023-06-10T04:27:41;16.27;;;14.73;;
25169;SDS011;13129;48.012;10.352;2023-06-10T04:30:06;17.50;;;15.80;;
25169;SDS011;13129;48.012;10.352;2023-06-10T04:32:32;18.67;;;15.95;;
25169;SDS011;13129;48.012;10.352;2023-06-10T04:34:59;16.25;;;14.80;;
25169;SDS011;13129;48.012;10.352;2023-06-10T04:37:25;15.90;;;14.43;;
25169;SDS011;13129;48.012;10.352;2023-06-10T04:39:50;14.32;;;13.10;;
25169;SDS011;13129;48.012;10.352;2023-06-10T04:42:16;14.32;;;13.02;;
25169;SDS011;13129;48.012;10.352;2023-06-10T04:44:42;16.00;;;14.57;;
25169;SDS011;13129;48.012;10.352;2023-06-10T04:47:08;15.27;;;13.88;;
25169;SDS011;13129;48.012;10.352;2023-06-10T04:49:39;16.17;;;14.63;;
25169;SDS011;13129;48.012;10.352;2023-06-10T04:52:29;15.95;;;14.55;;
25169;SDS011;13129;48.012;10.352;2023-06-10T04:55:02;17.08;;;15.48;;
25169;SDS011;13129;48.012;10.352;2023-06-10T04:57:32;16.17;;;14.73;;
25169;SDS011;13129;48.012;10.352;2023-06-10T05:00:01;16.88;;;15.27;;
25169;SDS011;13129;48.012;10.352;2023-06-10T05:03:06;15.88;;;14.35;;
25169;SDS011;13129;48.012;10.352;2023-06-10T05:09:22;16.23;;;14.82;;
25169;SDS011;13129;48.012;10.352;2023-06-10T05:11:56;16.15;;;14.75;;
25169;SDS011;13129;48.012;10.352;2023-06-10T05:14:22;14.25;;;13.05;;
25169;SDS011;13129;48.012;10.352;2023-06-10T05:16:51;15.48;;;14.07;;
25169;SDS011;13129;48.012;10.352;2023-06-10T05:19:23;15.45;;;13.98;;
25169;SDS011;13129;48.012;10.352;2023-06-10T05:21:49;14.45;;;13.20;;
25169;SDS011;13129;48.012;10.352;2023-06-10T05:24:24;14.05;;;12.65;;
25169;SDS011;13129;48.012;10.352;2023-06-10T05:27:11;14.30;;;12.90;;
25169;SDS011;13129;48.012;10.352;2023-06-10T05:29:59;13.52;;;12.23;;
25169;SDS011;13129;48.012;10.352;2023-06-10T05:32:32;13.02;;;11.60;;
25169;SDS011;13129;48.012;10.352;2023-06-10T05:34:58;12.00;;;10.90;;
25169;SDS011;13129;48.012;10.352;2023-06-10T05:37:25;12.43;;;11.13;;
25169;SDS011;13129;48.012;10.352;2023-06-10T05:39:50;11.40;;;10.30;;
25169;SDS011;13129;48.012;10.352;2023-06-10T05:42:16;11.85;;;10.75;;
25169;SDS011;13129;48.012;10.352;2023-06-10T05:44:42;10.85;;;9.95;;
25169;SDS011;13129;48.012;10.352;2023-06-10T05:47:08;10.57;;;9.70;;
25169;SDS011;13129;48.012;10.352;2023-06-10T05:49:34;11.07;;;10.07;;
25169;SDS011;13129;48.012;10.352;2023-06-10T05:51:59;10.38;;;9.45;;
25169;SDS011;13129;48.012;10.352;2023-06-10T05:54:25;11.07;;;10.18;;
25169;SDS011;13129;48.012;10.352;2023-06-10T05:56:51;10.65;;;9.77;;
25169;SDS011;13129;48.012;10.352;2023-06-10T05:59:17;10.98;;;10.07;;
25169;SDS011;13129;48.012;10.352;2023-06-10T06:01:43;10.48;;;9.63;;
25169;SDS011;13129;48.012;10.352;2023-06-10T06:04:08;11.32;;;10.43;;
25169;SDS011;13129;48.012;10.352;2023-06-10T06:06:35;9.23;;;8.48;;
25169;SDS011;13129;48.012;10.352;2023-06-10T06:09:03;11.10;;;10.30;;
25169;SDS011;13129;48.012;10.352;2023-06-10T06:11:29;9.48;;;8.68;;
25169;SDS011;13129;48.012;10.352;2023-06-10T06:13:54;10.30;;;9.50;;
25169;SDS011;13129;48.012;10.352;2023-06-10T06:16:20;10.75;;;9.95;;
25169;SDS011;13129;48.012;10.352;2023-06-10T06:18:46;8.77;;;8.05;;
25169;SDS011;13129;48.012;10.352;2023-06-10T06:21:12;9.48;;;8.77;;
25169;SDS011;13129;48.012;10.352;2023-06-10T06:23:37;11.13;;;10.13;;
25169;SDS011;13129;48.012;10.352;2023-06-10T06:26:03;10.07;;;9.27;;
25169;SDS011;13129;48.012;10.352;2023-06-10T06:28:29;9.43;;;8.73;;
25169;SDS011;13129;48.012;10.352;2023-06-10T06:30:56;9.38;;;8.57;;
25169;SDS011;13129;48.012;10.352;2023-06-10T06:33:22;10.73;;;9.93;;
25169;SDS011;13129;48.012;10.352;2023-06-10T06:35:47;9.13;;;8.38;;
25169;SDS011;13129;48.012;10.352;2023-06-10T06:38:13;9.70;;;8.90;;
25169;SDS011;13129;48.012;10.352;2023-06-10T06:40:38;9.73;;;8.95;;
25169;SDS011;13129;48.012;10.352;2023-06-10T06:43:04;9.88;;;9.07;;
25169;SDS011;13129;48.012;10.352;2023-06-10T06:45:30;10.23;;;9.35;;
25169;SDS011;13129;48.012;10.352;2023-06-10T06:47:55;9.00;;;8.20;;
25169;SDS011;13129;48.012;10.352;2023-06-10T06:50:21;9.70;;;8.98;;
25169;SDS011;13129;48.012;10.352;2023-06-10T06:52:47;9.02;;;8.32;;
25169;SDS011;13129;48.012;10.352;2023-06-10T06:55:12;9.35;;;8.60;;
25169;SDS011;13129;48.012;10.352;2023-06-10T06:57:38;9.65;;;8.85;;
25169;SDS011;13129;48.012;10.352;2023-06-10T07:00:04;10.07;;;9.18;;
25169;SDS011;13129;48.012;10.352;2023-06-10T07:02:30;10.15;;;9.27;;
25169;SDS011;13129;48.012;10.352;2023-06-10T07:04:58;10.00;;;9.20;;
25169;SDS011;13129;48.012;10.352;2023-06-10T07:07:24;9.88;;;9.10;;
25169;SDS011;13129;48.012;10.352;2023-06-10T07:09:49;8.85;;;8.15;;
25169;SDS011;13129;48.012;10.352;2023-06-10T07:12:15;9.82;;;8.88;;
25169;SDS011;13129;48.012;10.352;2023-06-10T07:14:41;9.32;;;8.52;;
25169;SDS011;13129;48.012;10.352;2023-06-10T07:17:07;9.13;;;8.43;;
25169;SDS011;13129;48.012;10.352;2023-06-10T07:19:33;9.75;;;8.95;;
25169;SDS011;13129;48.012;10.352;2023-06-10T07:21:58;8.68;;;7.97;;
25169;SDS011;13129;48.012;10.352;2023-06-10T07:24:24;9.18;;;8.38;;
25169;SDS011;13129;48.012;10.352;2023-06-10T07:26:50;7.88;;;7.28;;
25169;SDS011;13129;48.012;10.352;2023-06-10T07:29:16;7.82;;;7.13;;
25169;SDS011;13129;48.012;10.352;2023-06-10T07:31:41;7.88;;;7.07;;
25169;SDS011;13129;48.012;10.352;2023-06-10T07:34:07;8.77;;;7.97;;
25169;SDS011;13129;48.012;10.352;2023-06-10T07:36:33;8.95;;;8.20;;
25169;SDS011;13129;48.012;10.352;2023-06-10T07:38:59;9.00;;;8.27;;
25169;SDS011;13129;48.012;10.352;2023-06-10T07:41:24;8.02;;;7.43;;
25169;SDS011;13129;48.012;10.352;2023-06-10T07:43:50;8.35;;;7.65;;
25169;SDS011;13129;48.012;10.352;2023-06-10T07:46:19;9.23;;;8.52;;
25169;SDS011;13129;48.012;10.352;2023-06-10T07:48:46;8.07;;;7.40;;
25169;SDS011;13129;48.012;10.352;2023-06-10T07:51:12;8.48;;;7.78;;
25169;SDS011;13129;48.012;10.352;2023-06-10T07:53:38;8.55;;;7.95;;
25169;SDS011;13129;48.012;10.352;2023-06-10T07:56:03;7.68;;;6.95;;
25169;SDS011;13129;48.012;10.352;2023-06-10T07:58:29;8.07;;;7.38;;
25169;SDS011;13129;48.012;10.352;2023-06-10T08:00:55;7.22;;;6.63;;
25169;SDS011;13129;48.012;10.352;2023-06-10T08:03:20;7.65;;;7.05;;
25169;SDS011;13129;48.012;10.352;2023-06-10T08:05:46;7.00;;;6.30;;
25169;SDS011;13129;48.012;10.352;2023-06-10T08:08:12;7.63;;;7.03;;
25169;SDS011;13129;48.012;10.352;2023-06-10T08:10:38;8.02;;;7.38;;
25169;SDS011;13129;48.012;10.352;2023-06-10T08:13:04;7.20;;;6.60;;
25169;SDS011;13129;48.012;10.352;2023-06-10T08:15:29;7.80;;;7.18;;
25169;SDS011;13129;48.012;10.352;2023-06-10T08:17:55;7.05;;;6.43;;
25169;SDS011;13129;48.012;10.352;2023-06-10T08:20:21;6.05;;;5.55;;
25169;SDS011;13129;48.012;10.352;2023-06-10T08:22:47;6.50;;;5.88;;
25169;SDS011;13129;48.012;10.352;2023-06-10T08:25:13;6.70;;;6.20;;
25169;SDS011;13129;48.012;10.352;2023-06-10T08:27:38;6.80;;;6.10;;
25169;SDS011;13129;48.012;10.352;2023-06-10T08:30:04;6.95;;;6.45;;
25169;SDS011;13129;48.012;10.352;2023-06-10T08:32:30;6.85;;;6.28;;
25169;SDS011;13129;48.012;10.352;2023-06-10T08:34:56;6.38;;;5.90;;
25169;SDS011;13129;48.012;10.352;2023-06-10T08:37:22;6.63;;;6.13;;
25169;SDS011;13129;48.012;10.352;2023-06-10T08:39:47;6.07;;;5.57;;
25169;SDS011;13129;48.012;10.352;2023-06-10T08:42:23;6.68;;;6.18;;
25169;SDS011;13129;48.012;10.352;2023-06-10T08:44:58;8.02;;;7.22;;
25169;SDS011;13129;48.012;10.352;2023-06-10T08:47:27;7.88;;;7.28;;
25169;SDS011;13129;48.012;10.352;2023-06-10T08:49:56;6.85;;;6.35;;
25169;SDS011;13129;48.012;10.352;2023-06-10T08:52:28;6.57;;;6.18;;
25169;SDS011;13129;48.012;10.352;2023-06-10T08:55:00;6.78;;;6.28;;
25169;SDS011;13129;48.012;10.352;2023-06-10T08:57:34;6.82;;;6.22;;
25169;SDS011;13129;48.012;10.352;2023-06-10T09:00:00;7.05;;;6.47;;
25169;SDS011;13129;48.012;10.352;2023-06-10T09:02:27;7.03;;;6.43;;
25169;SDS011;13129;48.012;10.352;2023-06-10T09:04:53;6.88;;;6.32;;
25169;SDS011;13129;48.012;10.352;2023-06-10T09:07:22;7.20;;;6.70;;
25169;SDS011;13129;48.012;10.352;2023-06-10T09:09:48;6.38;;;5.90;;
25169;SDS011;13129;48.012;10.352;2023-06-10T09:12:14;6.18;;;5.78;;
25169;SDS011;13129;48.012;10.352;2023-06-10T09:14:40;6.65;;;6.05;;
25169;SDS011;13129;48.012;10.352;2023-06-10T09:17:07;6.05;;;5.65;;
25169;SDS011;13129;48.012;10.352;2023-06-10T09:19:32;6.38;;;5.68;;
25169;SDS011;13129;48.012;10.352;2023-06-10T09:21:58;6.45;;;5.95;;
25169;SDS011;13129;48.012;10.352;2023-06-10T09:24:24;5.50;;;5.10;;
25169;SDS011;13129;48.012;10.352;2023-06-10T09:26:52;5.75;;;5.35;;
25169;SDS011;13129;48.012;10.352;2023-06-10T09:29:28;6.05;;;5.50;;
25169;SDS011;13129;48.012;10.352;2023-06-10T09:31:54;6.00;;;5.50;;
25169;SDS011;13129;48.012;10.352;2023-06-10T09:34:20;6.18;;;5.75;;
25169;SDS011;13129;48.012;10.352;2023-06-10T09:36:50;5.32;;;4.93;;
25169;SDS011;13129;48.012;10.352;2023-06-10T09:39:16;4.88;;;4.57;;
25169;SDS011;13129;48.012;10.352;2023-06-10T09:41:44;5.45;;;5.05;;
25169;SDS011;13129;48.012;10.352;2023-06-10T09:44:17;5.80;;;5.40;;
25169;SDS011;13129;48.012;10.352;2023-06-10T09:46:45;5.43;;;5.03;;
25169;SDS011;13129;48.012;10.352;2023-06-10T09:49:12;5.63;;;5.22;;
25169;SDS011;13129;48.012;10.352;2023-06-10T09:51:44;5.60;;;5.20;;
25169;SDS011;13129;48.012;10.352;2023-06-10T09:54:18;6.15;;;5.65;;
25169;SDS011;13129;48.012;10.352;2023-06-10T09:56:46;5.20;;;4.80;;
25169;SDS011;13129;48.012;10.352;2023-06-10T09:59:12;6.03;;;5.55;;
25169;SDS011;13129;48.012;10.352;2023-06-10T10:01:38;5.28;;;4.82;;
25169;SDS011;13129;48.012;10.352;2023-06-10T10:04:04;5.35;;;4.95;;
25169;SDS011;13129;48.012;10.352;2023-06-10T10:06:30;6.07;;;5.57;;
25169;SDS011;13129;48.012;10.352;2023-06-10T10:08:56;6.45;;;5.95;;
25169;SDS011;13129;48.012;10.352;2023-06-10T10:11:22;6.25;;;5.75;;
25169;SDS011;13129;48.012;10.352;2023-06-10T10:13:48;5.97;;;5.57;;
25169;SDS011;13129;48.012;10.352;2023-06-10T10:16:36;6.38;;;5.90;;
25169;SDS011;13129;48.012;10.352;2023-06-10T10:19:13;5.85;;;5.32;;
25169;SDS011;13129;48.012;10.352;2023-06-10T10:21:48;6.15;;;5.57;;
25169;SDS011;13129;48.012;10.352;2023-06-10T10:24:18;5.63;;;5.13;;
25169;SDS011;13129;48.012;10.352;2023-06-10T10:26:49;6.15;;;5.63;;
25169;SDS011;13129;48.012;10.352;2023-06-10T10:29:18;5.90;;;5.40;;
25169;SDS011;13129;48.012;10.352;2023-06-10T10:31:50;5.30;;;4.85;;
25169;SDS011;13129;48.012;10.352;2023-06-10T10:34:24;4.50;;;4.20;;
25169;SDS011;13129;48.012;10.352;2023-06-10T10:37:15;4.78;;;4.47;;
25169;SDS011;13129;48.012;10.352;2023-06-10T10:39:42;5.53;;;5.05;;
25169;SDS011;13129;48.012;10.352;2023-06-10T10:42:08;4.53;;;4.13;;
25169;SDS011;13129;48.012;10.352;2023-06-10T10:44:36;4.75;;;4.45;;
25169;SDS011;13129;48.012;10.352;2023-06-10T10:47:03;5.57;;;5.18;;
25169;SDS011;13129;48.012;10.352;2023-06-10T10:49:30;5.28;;;4.80;;
25169;SDS011;13129;48.012;10.352;2023-06-10T10:51:57;5.57;;;5.07;;
25169;SDS011;13129;48.012;10.352;2023-06-10T10:54:28;6.60;;;4.40;;
25169;SDS011;13129;48.012;10.352;2023-06-10T11:02:17;5.15;;;4.75;;
25169;SDS011;13129;48.012;10.352;2023-06-10T11:04:47;4.95;;;4.55;;
25169;SDS011;13129;48.012;10.352;2023-06-10T11:07:13;5.35;;;4.85;;
25169;SDS011;13129;48.012;10.352;2023-06-10T11:12:53;4.78;;;4.38;;
25169;SDS011;13129;48.012;10.352;2023-06-10T11:15:20;4.03;;;3.72;;
25169;SDS011;13129;48.012;10.352;2023-06-10T11:31:31;3.42;;;3.15;;
25169;SDS011;13129;48.012;10.352;2023-06-10T11:36:27;2.80;;;2.60;;
25169;SDS011;13129;48.012;10.352;2023-06-10T11:38:54;3.30;;;3.00;;
25169;SDS011;13129;48.012;10.352;2023-06-10T11:41:25;3.78;;;3.47;;
25169;SDS011;13129;48.012;10.352;2023-06-10T11:43:52;3.40;;;3.20;;
25169;SDS011;13129;48.012;10.352;2023-06-10T11:46:19;4.03;;;3.72;;
25169;SDS011;13129;48.012;10.352;2023-06-10T11:48:49;3.88;;;3.55;;
25169;SDS011;13129;48.012;10.352;2023-06-10T11:51:15;3.88;;;3.58;;
25169;SDS011;13129;48.012;10.352;2023-06-10T11:53:43;3.60;;;3.30;;
25169;SDS011;13129;48.012;10.352;2023-06-10T11:56:12;3.55;;;3.35;;
25169;SDS011;13129;48.012;10.352;2023-06-10T11:58:38;3.50;;;3.30;;
25169;SDS011;13129;48.012;10.352;2023-06-10T12:01:08;3.65;;;3.35;;
25169;SDS011;13129;48.012;10.352;2023-06-10T12:03:37;4.00;;;3.70;;
25169;SDS011;13129;48.012;10.352;2023-06-10T12:06:04;3.83;;;3.50;;
25169;SDS011;13129;48.012;10.352;2023-06-10T12:08:30;3.97;;;3.70;;
25169;SDS011;13129;48.012;10.352;2023-06-10T12:10:57;3.85;;;3.55;;
25169;SDS011;13129;48.012;10.352;2023-06-10T12:13:25;4.18;;;3.50;;
25169;SDS011;13129;48.012;10.352;2023-06-10T12:15:51;3.22;;;3.03;;
25169;SDS011;13129;48.012;10.352;2023-06-10T12:20:50;3.17;;;2.97;;
25169;SDS011;13129;48.012;10.352;2023-06-10T12:23:16;3.65;;;3.35;;
25169;SDS011;13129;48.012;10.352;2023-06-10T12:25:50;3.83;;;3.60;;
25169;SDS011;13129;48.012;10.352;2023-06-10T12:28:22;3.22;;;3.03;;
25169;SDS011;13129;48.012;10.352;2023-06-10T12:30:49;4.00;;;3.70;;
25169;SDS011;13129;48.012;10.352;2023-06-10T12:33:18;4.20;;;3.58;;
25169;SDS011;13129;48.012;10.352;2023-06-10T12:35:48;4.13;;;3.72;;
25169;SDS011;13129;48.012;10.352;2023-06-10T12:38:21;3.67;;;3.38;;
25169;SDS011;13129;48.012;10.352;2023-06-10T12:40:52;3.22;;;3.03;;
25169;SDS011;13129;48.012;10.352;2023-06-10T12:43:24;3.67;;;3.40;;
25169;SDS011;13129;48.012;10.352;2023-06-10T12:45:51;5.22;;;3.88;;
25169;SDS011;13129;48.012;10.352;2023-06-10T12:48:18;3.95;;;3.65;;
25169;SDS011;13129;48.012;10.352;2023-06-10T12:50:50;4.00;;;3.55;;
25169;SDS011;13129;48.012;10.352;2023-06-10T12:53:17;3.85;;;3.55;;
25169;SDS011;13129;48.012;10.352;2023-06-10T12:55:44;3.50;;;3.13;;
25169;SDS011;13129;48.012;10.352;2023-06-10T12:58:10;3.72;;;3.42;;
25169;SDS011;13129;48.012;10.352;2023-06-10T13:00:36;3.65;;;3.35;;
25169;SDS011;13129;48.012;10.352;2023-06-10T13:03:02;5.07;;;4.10;;
25169;SDS011;13129;48.012;10.352;2023-06-10T13:05:30;3.97;;;3.67;;
25169;SDS011;13129;48.012;10.352;2023-06-10T13:07:57;4.38;;;4.05;;
25169;SDS011;13129;48.012;10.352;2023-06-10T13:10:23;4.47;;;3.58;;
25169;SDS011;13129;48.012;10.352;2023-06-10T13:12:50;3.85;;;3.50;;
25169;SDS011;13129;48.012;10.352;2023-06-10T13:15:16;3.90;;;3.60;;
25169;SDS011;13129;48.012;10.352;2023-06-10T13:17:43;4.10;;;3.80;;
25169;SDS011;13129;48.012;10.352;2023-06-10T13:20:09;4.05;;;3.70;;
25169;SDS011;13129;48.012;10.352;2023-06-10T13:22:34;4.30;;;3.90;;
25169;SDS011;13129;48.012;10.352;2023-06-10T13:25:03;4.50;;;4.00;;
25169;SDS011;13129;48.012;10.352;2023-06-10T13:27:31;4.88;;;4.47;;
25169;SDS011;13129;48.012;10.352;2023-06-10T13:29:57;4.53;;;4.13;;
25169;SDS011;13129;48.012;10.352;2023-06-10T13:32:23;4.10;;;3.80;;
25169;SDS011;13129;48.012;10.352;2023-06-10T13:34:48;3.88;;;3.60;;
25169;SDS011;13129;48.012;10.352;2023-06-10T13:37:14;4.25;;;3.85;;
25169;SDS011;13129;48.012;10.352;2023-06-10T13:39:43;4.07;;;3.70;;
25169;SDS011;13129;48.012;10.352;2023-06-10T13:42:19;3.75;;;3.55;;
25169;SDS011;13129;48.012;10.352;2023-06-10T13:44:45;3.75;;;3.45;;
25169;SDS011;13129;48.012;10.352;2023-06-10T13:47:12;4.43;;;3.60;;
25169;SDS011;13129;48.012;10.352;2023-06-10T13:49:39;4.28;;;3.80;;
25169;SDS011;13129;48.012;10.352;2023-06-10T13:52:05;4.93;;;4.35;;
25169;SDS011;13129;48.012;10.352;2023-06-10T13:54:31;4.90;;;4.50;;
25169;SDS011;13129;48.012;10.352;2023-06-10T13:56:57;4.25;;;3.85;;
25169;SDS011;13129;48.012;10.352;2023-06-10T13:59:24;4.80;;;4.40;;
25169;SDS011;13129;48.012;10.352;2023-06-10T14:01:49;4.75;;;4.43;;
25169;SDS011;13129;48.012;10.352;2023-06-10T14:04:15;4.95;;;4.55;;
25169;SDS011;13129;48.012;10.352;2023-06-10T14:06:41;4.40;;;4.00;;
25169;SDS011;13129;48.012;10.352;2023-06-10T14:09:06;4.47;;;4.05;;
25169;SDS011;13129;48.012;10.352;2023-06-10T14:11:32;5.00;;;4.63;;
25169;SDS011;13129;48.012;10.352;2023-06-10T14:13:57;4.80;;;4.38;;
25169;SDS011;13129;48.012;10.352;2023-06-10T14:16:23;4.70;;;4.30;;
25169;SDS011;13129;48.012;10.352;2023-06-10T14:18:49;4.40;;;4.00;;
25169;SDS011;13129;48.012;10.352;2023-06-10T14:21:18;4.43;;;4.10;;
25169;SDS011;13129;48.012;10.352;2023-06-10T14:23:44;4.90;;;4.40;;
25169;SDS011;13129;48.012;10.352;2023-06-10T14:26:10;5.05;;;4.65;;
25169;SDS011;13129;48.012;10.352;2023-06-10T14:28:36;5.07;;;4.57;;
25169;SDS011;13129;48.012;10.352;2023-06-10T14:31:02;5.05;;;4.65;;
25169;SDS011;13129;48.012;10.352;2023-06-10T14:33:27;5.35;;;4.70;;
25169;SDS011;13129;48.012;10.352;2023-06-10T14:35:53;4.93;;;4.53;;
25169;SDS011;13129;48.012;10.352;2023-06-10T14:38:19;6.15;;;5.55;;
25169;SDS011;13129;48.012;10.352;2023-06-10T14:40:45;5.72;;;5.22;;
25169;SDS011;13129;48.012;10.352;2023-06-10T14:43:10;5.40;;;4.95;;
25169;SDS011;13129;48.012;10.352;2023-06-10T14:45:36;5.13;;;4.72;;
25169;SDS011;13129;48.012;10.352;2023-06-10T14:48:03;5.43;;;4.90;;
25169;SDS011;13129;48.012;10.352;2023-06-10T14:50:29;5.32;;;4.93;;
25169;SDS011;13129;48.012;10.352;2023-06-10T14:52:55;5.75;;;5.28;;
25169;SDS011;13129;48.012;10.352;2023-06-10T14:55:21;5.40;;;4.90;;
25169;SDS011;13129;48.012;10.352;2023-06-10T14:57:51;5.45;;;5.05;;
25169;SDS011;13129;48.012;10.352;2023-06-10T15:00:17;6.05;;;5.55;;
25169;SDS011;13129;48.012;10.352;2023-06-10T15:02:50;4.93;;;4.63;;
25169;SDS011;13129;48.012;10.352;2023-06-10T15:05:16;6.07;;;5.53;;
25169;SDS011;13129;48.012;10.352;2023-06-10T15:07:44;5.20;;;4.80;;
25169;SDS011;13129;48.012;10.352;2023-06-10T15:10:11;5.55;;;5.05;;
25169;SDS011;13129;48.012;10.352;2023-06-10T15:12:37;4.90;;;4.50;;
25169;SDS011;13129;48.012;10.352;2023-06-10T15:15:03;5.25;;;4.85;;
25169;SDS011;13129;48.012;10.352;2023-06-10T15:17:29;5.60;;;5.15;;
25169;SDS011;13129;48.012;10.352;2023-06-10T15:19:55;5.95;;;5.45;;
25169;SDS011;13129;48.012;10.352;2023-06-10T15:22:21;6.03;;;5.43;;
25169;SDS011;13129;48.012;10.352;2023-06-10T15:24:47;6.03;;;5.45;;
25169;SDS011;13129;48.012;10.352;2023-06-10T15:27:13;5.55;;;5.05;;
25169;SDS011;13129;48.012;10.352;2023-06-10T15:29:39;5.32;;;4.82;;
25169;SDS011;13129;48.012;10.352;2023-06-10T15:32:05;6.18;;;5.57;;
25169;SDS011;13129;48.012;10.352;2023-06-10T15:34:31;5.72;;;5.25;;
25169;SDS011;13129;48.012;10.352;2023-06-10T15:36:57;6.35;;;5.75;;
25169;SDS011;13129;48.012;10.352;2023-06-10T15:39:23;6.32;;;5.72;;
25169;SDS011;13129;48.012;10.352;2023-06-10T15:41:50;6.13;;;5.60;;
25169;SDS011;13129;48.012;10.352;2023-06-10T15:44:16;6.00;;;5.50;;
25169;SDS011;13129;48.012;10.352;2023-06-10T15:46:42;5.47;;;5.07;;
25169;SDS011;13129;48.012;10.352;2023-06-10T15:49:07;5.85;;;5.35;;
25169;SDS011;13129;48.012;10.352;2023-06-10T15:51:33;5.25;;;4.75;;
25169;SDS011;13129;48.012;10.352;2023-06-10T15:53:59;5.45;;;5.05;;
25169;SDS011;13129;48.012;10.352;2023-06-10T15:56:24;6.20;;;5.15;;
25169;SDS011;13129;48.012;10.352;2023-06-10T15:58:51;5.97;;;5.38;;
25169;SDS011;13129;48.012;10.352;2023-06-10T16:01:16;5.35;;;4.95;;
25169;SDS011;13129;48.012;10.352;2023-06-10T16:03:42;5.38;;;4.95;;
25169;SDS011;13129;48.012;10.352;2023-06-10T16:06:08;10.82;;;5.93;;
25169;SDS011;13129;48.012;10.352;2023-06-10T16:08:34;7.35;;;5.05;;
25169;SDS011;13129;48.012;10.352;2023-06-10T16:10:59;5.78;;;5.35;;
25169;SDS011;13129;48.012;10.352;2023-06-10T16:13:25;5.57;;;5.18;;
25169;SDS011;13129;48.012;10.352;2023-06-10T16:15:51;5.97;;;5.47;;
25169;SDS011;13129;48.012;10.352;2023-06-10T16:18:17;6.07;;;5.57;;
25169;SDS011;13129;48.012;10.352;2023-06-10T16:20:42;5.80;;;5.30;;
25169;SDS011;13129;48.012;10.352;2023-06-10T16:23:08;5.57;;;5.18;;
25169;SDS011;13129;48.012;10.352;2023-06-10T16:25:34;6.32;;;5.72;;
25169;SDS011;13129;48.012;10.352;2023-06-10T16:28:00;6.25;;;5.65;;
25169;SDS011;13129;48.012;10.352;2023-06-10T16:30:27;5.93;;;5.43;;
25169;SDS011;13129;48.012;10.352;2023-06-10T16:32:52;5.47;;;5.00;;
25169;SDS011;13129;48.012;10.352;2023-06-10T16:35:18;5.60;;;5.20;;
25169;SDS011;13129;48.012;10.352;2023-06-10T16:37:44;5.97;;;5.18;;
25169;SDS011;13129;48.012;10.352;2023-06-10T16:40:10;5.97;;;5.47;;
25169;SDS011;13129;48.012;10.352;2023-06-10T16:42:36;6.20;;;5.65;;
25169;SDS011;13129;48.012;10.352;2023-06-10T16:45:02;6.53;;;5.80;;
25169;SDS011;13129;48.012;10.352;2023-06-10T16:47:27;5.70;;;5.20;;
25169;SDS011;13129;48.012;10.352;2023-06-10T16:49:53;5.55;;;5.07;;
25169;SDS011;13129;48.012;10.352;2023-06-10T16:52:19;4.97;;;4.57;;
25169;SDS011;13129;48.012;10.352;2023-06-10T16:54:45;5.70;;;5.13;;
25169;SDS011;13129;48.012;10.352;2023-06-10T16:57:10;5.22;;;4.82;;
25169;SDS011;13129;48.012;10.352;2023-06-10T16:59:36;4.72;;;4.35;;
25169;SDS011;13129;48.012;10.352;2023-06-10T17:02:02;4.93;;;4.57;;
25169;SDS011;13129;48.012;10.352;2023-06-10T17:04:28;5.57;;;5.03;;
25169;SDS011;13129;48.012;10.352;2023-06-10T17:06:53;5.70;;;5.20;;
25169;SDS011;13129;48.012;10.352;2023-06-10T17:09:19;5.03;;;4.57;;
25169;SDS011;13129;48.012;10.352;2023-06-10T17:11:45;5.47;;;4.72;;
25169;SDS011;13129;48.012;10.352;2023-06-10T17:14:11;5.40;;;5.00;;
25169;SDS011;13129;48.012;10.352;2023-06-10T17:16:37;4.63;;;4.22;;
25169;SDS011;13129;48.012;10.352;2023-06-10T17:19:02;5.28;;;4.82;;
25169;SDS011;13129;48.012;10.352;2023-06-10T17:21:28;4.97;;;4.57;;
25169;SDS011;13129;48.012;10.352;2023-06-10T17:23:54;5.20;;;4.70;;
25169;SDS011;13129;48.012;10.352;2023-06-10T17:26:20;5.00;;;4.60;;
25169;SDS011;13129;48.012;10.352;2023-06-10T17:28:45;4.72;;;4.15;;
25169;SDS011;13129;48.012;10.352;2023-06-10T17:31:11;4.70;;;4.35;;
25169;SDS011;13129;48.012;10.352;2023-06-10T17:33:37;4.18;;;3.88;;
25169;SDS011;13129;48.012;10.352;2023-06-10T17:36:02;4.95;;;4.55;;
25169;SDS011;13129;48.012;10.352;2023-06-10T17:38:28;4.68;;;4.35;;
25169;SDS011;13129;48.012;10.352;2023-06-10T17:40:54;5.13;;;4.63;;
25169;SDS011;13129;48.012;10.352;2023-06-10T17:43:20;4.50;;;4.10;;
25169;SDS011;13129;48.012;10.352;2023-06-10T17:45:46;4.38;;;4.00;;
25169;SDS011;13129;48.012;10.352;2023-06-10T17:48:15;4.85;;;4.45;;
25169;SDS011;13129;48.012;10.352;2023-06-10T17:50:42;3.95;;;3.65;;
25169;SDS011;13129;48.012;10.352;2023-06-10T17:53:07;4.72;;;4.22;;
25169;SDS011;13129;48.012;10.352;2023-06-10T17:55:34;3.70;;;3.40;;
25169;SDS011;13129;48.012;10.352;2023-06-10T17:58:00;4.07;;;3.72;;
25169;SDS011;13129;48.012;10.352;2023-06-10T18:00:25;4.20;;;3.80;;
25169;SDS011;13129;48.012;10.352;2023-06-10T18:02:51;5.60;;;3.55;;
25169;SDS011;13129;48.012;10.352;2023-06-10T18:05:18;4.32;;;4.00;;
25169;SDS011;13129;48.012;10.352;2023-06-10T18:07:43;5.07;;;4.57;;
25169;SDS011;13129;48.012;10.352;2023-06-10T18:10:09;10.27;;;4.68;;
25169;SDS011;13129;48.012;10.352;2023-06-10T18:12:36;4.57;;;3.88;;
25169;SDS011;13129;48.012;10.352;2023-06-10T18:15:03;4.43;;;4.00;;
25169;SDS011;13129;48.012;10.352;2023-06-10T18:17:30;4.15;;;3.85;;
25169;SDS011;13129;48.012;10.352;2023-06-10T18:19:57;4.22;;;3.83;;
25169;SDS011;13129;48.012;10.352;2023-06-10T18:22:24;4.10;;;3.80;;
25169;SDS011;13129;48.012;10.352;2023-06-10T18:24:50;4.32;;;3.92;;
25169;SDS011;13129;48.012;10.352;2023-06-10T18:27:16;4.22;;;3.92;;
25169;SDS011;13129;48.012;10.352;2023-06-10T18:29:41;4.13;;;3.67;;
25169;SDS011;13129;48.012;10.352;2023-06-10T18:32:07;4.15;;;3.85;;